createdAt,value
2022-12-23T14:00:36.945Z,15.60
2022-12-23T14:03:13.825Z,15.13
2022-12-23T14:05:50.755Z,16.20
2022-12-23T14:08:32.190Z,14.68
2022-12-23T14:11:04.617Z,13.52
2022-12-23T14:14:18.169Z,13.93
2022-12-23T14:17:14.671Z,13.50
2022-12-23T14:20:14.762Z,13.00
2022-12-23T14:23:17.801Z,12.63
2022-12-23T14:26:21.307Z,12.60
2022-12-23T14:29:45.071Z,12.50
2022-12-23T14:32:42.418Z,12.57
2022-12-23T14:35:42.143Z,12.00
2022-12-23T14:38:16.686Z,11.38
2022-12-23T14:40:53.665Z,10.88
2022-12-23T14:43:26.628Z,11.70
2022-12-23T14:46:10.541Z,12.60
2022-12-23T14:49:37.606Z,11.35
2022-12-23T14:52:07.890Z,11.60
2022-12-23T14:54:55.104Z,11.10
2022-12-23T14:57:46.427Z,11.25
2022-12-23T15:00:21.503Z,11.50
2022-12-23T15:02:57.734Z,10.52
2022-12-23T15:05:30.373Z,10.27
2022-12-23T15:08:05.638Z,12.00
2022-12-23T15:10:40.139Z,11.55
2022-12-23T15:13:15.996Z,11.05
2022-12-23T15:16:02.532Z,10.63
2022-12-23T15:18:37.925Z,12.05
2022-12-23T15:21:12.601Z,11.25
2022-12-23T15:24:32.234Z,11.40
2022-12-23T15:29:59.714Z,12.60
2022-12-23T15:32:45.565Z,11.52
2022-12-23T15:35:34.603Z,20.35
2022-12-23T15:38:07.541Z,12.98
2022-12-23T15:40:47.591Z,13.07
2022-12-23T15:43:23.551Z,13.13
2022-12-23T15:45:59.120Z,13.95
2022-12-23T15:48:35.544Z,13.38
2022-12-23T15:51:50.107Z,12.20
2022-12-23T15:54:49.590Z,12.10
2022-12-23T15:57:28.443Z,17.45
2022-12-23T16:00:12.326Z,18.90
2022-12-23T16:03:01.838Z,19.25
2022-12-23T16:05:44.950Z,23.90
2022-12-23T16:08:35.709Z,22.08
2022-12-23T16:11:24.042Z,20.83
2022-12-23T16:14:01.930Z,19.70
